Time;durP1;ratioP1;P1;durP2;ratioP2;P2;SDS_P1;SDS_P2;PMS_P1;PMS_P2;Temp;Humidity;BMP_temperature;BMP_pressure;BME280_temperature;BME280_humidity;BME280_pressure;Samples;Min_cycle;Max_cycle;Signal;HPM_P1;HPM_P2
2023/01/22 00:00:26;;;;;;;12.18;5.95;;;;;;;3.73;45.50;103370.72;7394431;19;19999;-64
2023/01/22 00:02:52;;;;;;;12.73;6.65;;;;;;;3.56;45.92;103369.75;7393889;19;20073;-64
2023/01/22 00:05:17;;;;;;;12.90;6.20;;;;;;;3.60;45.61;103369.03;7392708;19;20752;-63
2023/01/22 00:07:44;;;;;;;14.00;6.50;;;;;;;3.57;45.64;103361.44;7393899;19;20477;-63
2023/01/22 00:10:10;;;;;;;15.38;7.05;;;;;;;3.40;45.75;103363.91;7392680;19;20003;-63
2023/01/22 00:12:36;;;;;;;11.90;6.20;;;;;;;3.55;45.53;103363.50;7394445;19;19998;-63
2023/01/22 00:15:02;;;;;;;12.98;6.38;;;;;;;3.54;45.61;103359.19;7394030;19;20002;-63
2023/01/22 00:17:29;;;;;;;13.00;6.00;;;;;;;3.54;45.74;103361.88;7393545;19;19994;-63
2023/01/22 00:19:55;;;;;;;13.43;7.05;;;;;;;3.61;45.69;103362.59;7394791;19;20002;-63
2023/01/22 00:22:27;;;;;;;12.40;6.38;;;;;;;3.47;45.81;103355.72;7391995;19;19999;-63
2023/01/22 00:24:53;;;;;;;13.07;7.00;;;;;;;3.61;45.64;103368.00;7390264;19;20026;-63
2023/01/22 00:27:19;;;;;;;23.13;9.50;;;;;;;3.62;45.42;103368.81;7390524;19;19999;-63
2023/01/22 00:29:45;;;;;;;13.20;6.00;;;;;;;3.66;45.45;103359.22;7393470;19;20002;-63
2023/01/22 00:32:10;;;;;;;12.30;6.32;;;;;;;3.62;45.61;103344.50;7393268;19;20025;-63
2023/01/22 00:34:36;;;;;;;11.70;5.80;;;;;;;3.67;45.40;103350.03;7392084;19;20458;-63
2023/01/22 00:37:02;;;;;;;11.70;5.60;;;;;;;3.47;45.85;103353.03;7393082;19;20479;-63
2023/01/22 00:39:27;;;;;;;11.95;6.38;;;;;;;3.54;45.75;103359.19;7393353;19;20035;-63
2023/01/22 00:41:53;;;;;;;10.52;5.55;;;;;;;3.57;45.36;103358.72;7391659;19;19998;-63
2023/01/22 00:44:19;;;;;;;10.52;5.07;;;;;;;3.60;45.55;103357.44;7391299;19;20006;-63
2023/01/22 00:46:45;;;;;;;11.13;5.80;;;;;;;3.71;45.37;103352.03;7392893;19;19995;-63
2023/01/22 00:49:11;;;;;;;13.02;5.88;;;;;;;3.57;45.51;103361.44;7392644;19;19999;-64
2023/01/22 00:51:38;;;;;;;11.07;5.43;;;;;;;3.54;45.64;103353.78;7393159;19;19994;-62
2023/01/22 00:54:04;;;;;;;12.18;5.97;;;;;;;3.60;45.42;103352.84;7391870;19;19998;-62
2023/01/22 00:56:29;;;;;;;10.88;5.18;;;;;;;3.66;45.49;103349.22;7392966;19;20006;-62
2023/01/22 00:58:55;;;;;;;10.40;5.25;;;;;;;3.54;45.68;103356.47;7391569;19;20008;-62
2023/01/22 01:01:21;;;;;;;11.60;5.93;;;;;;;3.60;45.62;103354.72;7389891;19;20494;-62
2023/01/22 01:03:47;;;;;;;10.20;5.40;;;;;;;3.59;45.54;103350.41;7390554;19;20002;-62
2023/01/22 01:06:19;;;;;;;10.70;5.32;;;;;;;3.76;45.11;103350.53;7392245;19;20482;-62
2023/01/22 01:08:46;;;;;;;9.68;5.30;;;;;;;3.67;45.31;103350.88;7391206;19;20007;-62
2023/01/22 01:11:16;;;;;;;10.90;5.22;;;;;;;3.66;45.38;103354.63;7392730;19;20074;-63
2023/01/22 01:13:42;;;;;;;11.48;5.75;;;;;;;3.59;45.64;103356.59;7390692;19;20003;-64
2023/01/22 01:16:15;;;;;;;10.80;5.70;;;;;;;3.73;45.40;103353.72;7392516;19;20033;-63
2023/01/22 01:18:42;;;;;;;10.45;5.45;;;;;;;3.74;45.41;103349.94;7392037;19;20002;-63
2023/01/22 01:21:08;;;;;;;9.82;5.10;;;;;;;3.77;45.29;103344.91;7392118;19;20019;-64
2023/01/22 01:23:34;;;;;;;11.00;5.30;;;;;;;3.77;45.36;103349.47;7390669;19;20023;-62
2023/01/22 01:26:07;;;;;;;11.25;5.40;;;;;;;3.76;45.28;103347.84;7391783;19;20006;-61
2023/01/22 01:28:35;;;;;;;11.50;5.20;;;;;;;3.85;45.20;103346.44;7390795;19;19998;-61
2023/01/22 01:31:05;;;;;;;11.25;5.47;;;;;;;3.57;45.85;103350.63;7391626;19;20457;-62
2023/01/22 01:33:31;;;;;;;10.73;5.88;;;;;;;3.53;45.80;103349.41;7391006;19;20109;-61
2023/01/22 01:36:03;;;;;;;10.45;5.40;;;;;;;3.53;45.84;103349.41;7390053;19;20102;-62
2023/01/22 01:38:30;;;;;;;12.98;4.90;;;;;;;3.68;45.50;103349.81;7390174;19;20086;-63
2023/01/22 01:40:56;;;;;;;9.45;5.35;;;;;;;3.51;45.83;103351.53;7391115;19;20029;-63
2023/01/22 01:43:22;;;;;;;9.50;4.80;;;;;;;3.77;45.38;103338.66;7390230;19;20070;-62
2023/01/22 01:45:48;;;;;;;9.35;4.53;;;;;;;3.65;45.61;103344.88;7390147;19;19998;-63
2023/01/22 01:48:36;;;;;;;10.05;5.22;;;;;;;3.65;45.36;103346.75;7389430;19;20730;-63
2023/01/22 01:51:13;;;;;;;9.15;4.43;;;;;;;3.38;45.71;103349.81;7391414;19;20316;-63
2023/01/22 01:53:41;;;;;;;9.50;4.88;;;;;;;3.45;45.78;103352.44;7390475;19;20006;-63
2023/01/22 01:56:16;;;;;;;9.75;4.25;;;;;;;3.34;45.43;103349.44;7390242;19;20093;-64
2023/01/22 01:58:44;;;;;;;8.95;4.43;;;;;;;3.25;45.60;103348.16;7390098;19;20455;-63
2023/01/22 02:01:14;;;;;;;10.10;4.32;;;;;;;3.45;45.11;103347.03;7390955;19;20012;-63
2023/01/22 02:03:40;;;;;;;7.93;3.97;;;;;;;3.28;45.18;103344.16;7385657;19;20014;-51
2023/01/22 02:06:15;;;;;;;8.15;4.25;;;;;;;3.36;44.93;103346.53;7390849;19;20459;-53
2023/01/22 02:08:44;;;;;;;9.27;4.05;;;;;;;3.32;45.04;103343.47;7389168;19;20426;-51
2023/01/22 02:11:11;;;;;;;9.23;3.70;;;;;;;3.30;45.05;103345.56;7392071;19;20435;-52
2023/01/22 02:13:41;;;;;;;7.10;3.65;;;;;;;3.24;45.08;103345.66;7390218;19;20388;-52
2023/01/22 02:16:09;;;;;;;8.43;3.53;;;;;;;3.43;44.48;103344.56;7390576;19;20066;-51
2023/01/22 02:18:35;;;;;;;6.75;3.45;;;;;;;3.39;44.80;103354.16;7390377;19;20023;-52
2023/01/22 02:21:00;;;;;;;8.23;3.78;;;;;;;3.24;44.95;103343.78;7390380;19;20366;-52
2023/01/22 02:23:29;;;;;;;8.43;4.15;;;;;;;3.31;44.61;103347.22;7389773;19;20007;-53
2023/01/22 02:25:56;;;;;;;9.25;4.18;;;;;;;3.32;44.84;103348.06;7388410;19;20006;-51
2023/01/22 02:28:22;;;;;;;8.48;4.05;;;;;;;3.31;44.79;103346.41;7389650;19;20022;-53
2023/01/22 02:30:48;;;;;;;10.65;4.10;;;;;;;3.32;44.70;103354.25;7390448;19;20076;-48
2023/01/22 02:33:14;;;;;;;11.75;4.35;;;;;;;3.34;44.83;103351.34;7390470;19;20448;-49
2023/01/22 02:35:40;;;;;;;8.55;3.88;;;;;;;3.42;44.86;103353.72;7390269;19;20003;-49
2023/01/22 02:38:06;;;;;;;11.70;4.18;;;;;;;3.54;44.55;103359.19;7388576;19;20015;-50
2023/01/22 02:40:32;;;;;;;9.18;4.00;;;;;;;3.43;44.80;103354.56;7390030;19;20062;-49
2023/01/22 02:42:59;;;;;;;9.77;4.22;;;;;;;3.35;45.11;103351.09;7389853;19;20013;-49
2023/01/22 02:45:25;;;;;;;8.25;4.00;;;;;;;3.33;45.02;103353.19;7389195;19;19995;-48
2023/01/22 02:47:51;;;;;;;10.38;4.43;;;;;;;3.26;45.18;103349.78;7387307;19;19998;-48
2023/01/22 02:50:17;;;;;;;8.68;4.40;;;;;;;3.27;45.32;103348.72;7390163;19;20038;-51
2023/01/22 02:52:43;;;;;;;8.10;4.55;;;;;;;3.33;45.43;103353.19;7396789;19;20005;-48
2023/01/22 02:55:09;;;;;;;7.03;4.15;;;;;;;3.34;45.11;103354.84;7394043;19;20396;-48
2023/01/22 02:57:35;;;;;;;8.20;3.80;;;;;;;3.47;44.58;103347.63;7397313;19;20054;-49
2023/01/22 03:00:00;;;;;;;8.70;4.47;;;;;;;3.35;45.14;103340.31;7395765;19;20349;-48
2023/01/22 03:02:26;;;;;;;7.80;4.63;;;;;;;3.33;44.83;103344.28;7395157;19;20009;-49
2023/01/22 03:05:02;;;;;;;6.82;3.88;;;;;;;3.42;44.61;103340.22;7393533;19;20483;-49
2023/01/22 03:07:40;;;;;;;7.95;4.40;;;;;;;3.40;44.67;103330.69;7394258;19;20459;-49
2023/01/22 03:10:10;;;;;;;8.90;4.35;;;;;;;3.28;45.14;103336.06;7396688;19;19999;-50
2023/01/22 03:23:33;;;;;;;;;;;;;;;3.15;44.85;103321.69;7395908;19;20007;-53
2023/01/22 03:25:58;;;;;;;9.15;5.25;;;;;;;3.32;44.76;103321.06;7395663;19;19919;-52
2023/01/22 03:28:25;;;;;;;9.98;5.15;;;;;;;3.26;44.84;103319.25;7395856;19;20014;-50
2023/01/22 03:30:51;;;;;;;9.77;5.15;;;;;;;3.30;44.87;103326.69;7394038;19;20016;-53
2023/01/22 03:33:23;;;;;;;8.75;5.38;;;;;;;3.35;44.64;103324.13;7396341;19;20014;-53
2023/01/22 03:35:49;;;;;;;8.75;5.60;;;;;;;3.35;44.79;103315.16;7393260;19;20475;-53
2023/01/22 03:38:15;;;;;;;9.50;5.35;;;;;;;3.30;44.72;103321.28;7392872;19;19999;-51
2023/01/22 03:40:41;;;;;;;11.35;5.75;;;;;;;3.40;44.57;103322.59;7393326;19;20003;-52
2023/01/22 03:43:06;;;;;;;9.15;5.25;;;;;;;3.46;44.64;103317.13;7393486;19;20010;-53
2023/01/22 03:45:33;;;;;;;8.93;5.53;;;;;;;3.53;44.54;103312.44;7394960;19;20351;-53
2023/01/22 03:47:59;;;;;;;9.65;5.65;;;;;;;3.39;44.83;103320.97;7392830;19;19998;-54
2023/01/22 03:50:24;;;;;;;10.98;5.57;;;;;;;3.46;44.60;103317.13;7395545;19;20060;-53
2023/01/22 03:52:50;;;;;;;10.10;5.38;;;;;;;3.57;44.38;103318.22;7395081;19;20005;-53
2023/01/22 03:55:16;;;;;;;9.68;5.60;;;;;;;3.51;44.66;103317.25;7390765;19;20489;-54
2023/01/22 03:57:42;;;;;;;10.93;5.80;;;;;;;3.42;44.72;103324.00;7393904;19;20471;-53
2023/01/22 04:00:08;;;;;;;9.77;5.30;;;;;;;3.30;44.90;103312.34;7394504;19;20463;-53
2023/01/22 04:02:34;;;;;;;8.75;5.20;;;;;;;3.42;44.71;103320.47;7392575;19;20009;-54
2023/01/22 04:05:00;;;;;;;9.65;5.72;;;;;;;3.28;44.93;103309.06;7391910;19;20010;-52
2023/01/22 04:07:26;;;;;;;8.15;4.72;;;;;;;3.20;45.22;103318.28;7391909;19;20527;-54
2023/01/22 04:09:51;;;;;;;9.73;5.38;;;;;;;3.40;44.73;103319.88;7395436;19;20320;-51
2023/01/22 04:12:17;;;;;;;9.48;5.05;;;;;;;3.48;44.50;103315.00;7394206;19;20353;-53
2023/01/22 04:14:43;;;;;;;8.13;4.85;;;;;;;3.59;44.34;103316.09;7392850;19;20338;-52
2023/01/22 04:17:09;;;;;;;9.70;5.00;;;;;;;3.49;44.40;103316.66;7393448;19;20006;-50
2023/01/22 04:19:35;;;;;;;10.20;4.82;;;;;;;3.65;44.31;103315.19;7394241;19;20022;-49
2023/01/22 04:22:01;;;;;;;10.63;4.85;;;;;;;3.58;44.32;103314.44;7391809;19;19994;-54
2023/01/22 04:24:27;;;;;;;8.68;5.05;;;;;;;3.62;44.30;103314.78;7391551;19;20002;-51
2023/01/22 04:26:52;;;;;;;8.88;4.80;;;;;;;3.52;44.53;103326.19;7393647;19;20470;-53
2023/01/22 04:29:18;;;;;;;8.93;4.95;;;;;;;3.48;44.69;103319.59;7393458;19;20010;-53
2023/01/22 04:31:44;;;;;;;9.40;5.35;;;;;;;3.44;44.93;103316.53;7393932;19;20026;-51
2023/01/22 04:34:10;;;;;;;8.90;4.63;;;;;;;3.50;44.45;103307.50;7390840;19;20016;-50
2023/01/22 04:36:36;;;;;;;10.10;5.43;;;;;;;3.57;44.63;103315.50;7391650;19;20010;-48
2023/01/22 04:39:01;;;;;;;11.00;4.93;;;;;;;3.60;44.34;103315.03;7392836;19;20069;-53
2023/01/22 04:41:27;;;;;;;9.02;4.95;;;;;;;3.53;44.79;103314.31;7391350;19;20305;-52
2023/01/22 04:43:53;;;;;;;10.82;5.03;;;;;;;3.51;44.78;103319.13;7390872;19;20026;-54
2023/01/22 04:46:19;;;;;;;9.35;5.03;;;;;;;3.36;44.66;103322.22;7393266;19;20340;-52
2023/01/22 04:48:47;;;;;;;10.65;5.50;;;;;;;3.30;45.15;103321.28;7392534;19;20002;-53
2023/01/22 04:51:13;;;;;;;8.35;4.50;;;;;;;3.38;45.05;103320.13;7393037;19;20033;-53
2023/01/22 04:53:39;;;;;;;8.57;4.88;;;;;;;3.29;45.03;103322.31;7393096;19;19998;-50
2023/01/22 04:56:05;;;;;;;9.13;4.82;;;;;;;3.43;45.01;103311.34;7393179;19;20059;-53
2023/01/22 04:58:30;;;;;;;10.57;5.40;;;;;;;3.61;44.48;103316.69;7392050;19;20009;-51
2023/01/22 05:00:56;;;;;;;7.75;4.93;;;;;;;3.55;44.39;103314.09;7391691;19;20121;-52
2023/01/22 05:03:22;;;;;;;9.30;4.93;;;;;;;3.52;44.64;103315.38;7392119;19;19998;-51
2023/01/22 05:05:48;;;;;;;8.15;5.07;;;;;;;3.73;44.24;103305.06;7390399;19;20017;-52
2023/01/22 05:08:14;;;;;;;9.32;4.88;;;;;;;3.73;44.31;103305.91;7389796;19;20115;-52
2023/01/22 05:10:40;;;;;;;9.85;5.05;;;;;;;3.53;44.53;103300.81;7392369;19;19991;-54
2023/01/22 05:13:06;;;;;;;9.48;4.43;;;;;;;3.65;44.34;103314.34;7391021;19;19995;-53
2023/01/22 05:15:32;;;;;;;9.82;5.40;;;;;;;3.42;45.12;103309.66;7391445;19;20002;-52
2023/01/22 05:17:59;;;;;;;9.90;4.95;;;;;;;3.44;44.84;103307.63;7391581;19;20388;-53
2023/01/22 05:20:26;;;;;;;9.50;4.88;;;;;;;3.57;44.69;103306.56;7390148;19;20003;-53
2023/01/22 05:22:51;;;;;;;9.23;4.70;;;;;;;3.59;44.68;103310.69;7388745;19;20006;-53
2023/01/22 05:25:17;;;;;;;10.98;5.20;;;;;;;3.67;44.49;103314.91;7389856;19;19999;-52
2023/01/22 05:27:43;;;;;;;8.05;4.68;;;;;;;3.53;44.69;103303.50;7390583;19;20471;-49
2023/01/22 05:30:11;;;;;;;9.68;4.70;;;;;;;3.61;44.55;103303.19;7390976;19;20004;-49
2023/01/22 05:32:37;;;;;;;8.63;5.00;;;;;;;3.65;44.42;103301.69;7392179;19;19998;-50
2023/01/22 05:35:04;;;;;;;8.77;4.90;;;;;;;3.46;44.81;103306.31;7390362;19;20015;-53
2023/01/22 05:37:31;;;;;;;8.88;5.00;;;;;;;3.64;44.24;103302.72;7391290;19;20006;-53
2023/01/22 05:39:57;;;;;;;8.40;4.70;;;;;;;3.40;44.88;103298.28;7390662;19;20040;-51
2023/01/22 05:42:23;;;;;;;9.30;4.80;;;;;;;3.58;44.67;103298.25;7388460;19;20016;-48
2023/01/22 05:44:48;;;;;;;10.35;4.90;;;;;;;3.69;44.39;103310.94;7389877;19;20003;-49
2023/01/22 05:47:14;;;;;;;7.78;4.47;;;;;;;3.76;44.36;103304.63;7390064;19;19999;-49
2023/01/22 05:49:41;;;;;;;9.00;5.13;;;;;;;3.75;44.20;103309.19;7391418;19;19998;-50
2023/01/22 05:52:09;;;;;;;8.80;4.70;;;;;;;3.68;44.50;103309.28;7391156;19;20005;-48
2023/01/22 05:54:37;;;;;;;10.00;5.38;;;;;;;3.71;44.20;103302.59;7391008;19;20019;-48
2023/01/22 05:57:03;;;;;;;8.60;4.55;;;;;;;3.66;44.37;103310.59;7388508;19;20054;-51
2023/01/22 05:59:29;;;;;;;8.05;4.63;;;;;;;3.64;44.55;103302.72;7391005;19;20474;-53
2023/01/22 06:01:55;;;;;;;9.70;5.20;;;;;;;3.60;44.78;103304.22;7390463;19;19998;-51
2023/01/22 06:04:21;;;;;;;9.23;5.07;;;;;;;3.49;44.92;103300.47;7387673;19;20007;-51
2023/01/22 06:06:47;;;;;;;9.75;4.68;;;;;;;3.61;44.72;103303.19;7388108;19;20384;-52
2023/01/22 06:09:13;;;;;;;8.60;4.65;;;;;;;3.74;44.37;103307.56;7389556;19;20006;-53
2023/01/22 06:11:39;;;;;;;9.02;4.45;;;;;;;3.47;44.77;103304.44;7390567;19;20002;-49
2023/01/22 06:14:05;;;;;;;9.60;4.93;;;;;;;3.58;44.71;103311.75;7389512;19;20013;-49
2023/01/22 06:16:31;;;;;;;12.32;4.80;;;;;;;3.40;45.03;103309.09;7391391;19;20003;-51
2023/01/22 06:18:57;;;;;;;9.10;4.57;;;;;;;3.55;45.04;103300.59;7390600;19;20028;-49
2023/01/22 06:21:23;;;;;;;7.47;4.50;;;;;;;3.73;44.57;103305.06;7388036;19;20362;-51
2023/01/22 06:23:49;;;;;;;8.77;4.35;;;;;;;3.42;45.06;103310.50;7389636;19;20023;-52
2023/01/22 06:26:14;;;;;;;10.05;5.20;;;;;;;3.57;44.79;103306.56;7392655;19;20459;-53
2023/01/22 06:28:40;;;;;;;10.13;5.10;;;;;;;3.67;44.66;103313.06;7395433;19;20460;-50
2023/01/22 06:31:06;;;;;;;11.00;5.30;;;;;;;3.79;44.49;103306.84;7397809;19;19999;-52
2023/01/22 06:33:34;;;;;;;9.35;4.88;;;;;;;3.84;44.28;103315.09;7394933;19;20002;-53
2023/01/22 06:36:00;;;;;;;9.30;4.53;;;;;;;3.74;44.61;103318.34;7395984;19;20007;-54
2023/01/22 06:38:26;;;;;;;11.27;4.75;;;;;;;3.75;44.43;103319.16;7396778;19;20384;-52
2023/01/22 06:40:53;;;;;;;8.48;4.18;;;;;;;3.73;44.48;103316.69;7397020;19;20003;-53
2023/01/22 06:43:19;;;;;;;9.55;4.72;;;;;;;3.71;44.58;103313.41;7396338;19;20003;-54
2023/01/22 06:45:45;;;;;;;8.75;4.60;;;;;;;3.68;44.76;103325.50;7395512;19;20005;-54
2023/01/22 06:48:11;;;;;;;8.57;4.50;;;;;;;3.67;44.78;103328.44;7394981;19;20062;-51
2023/01/22 06:50:37;;;;;;;8.75;4.60;;;;;;;3.83;44.35;103332.34;7396827;19;20468;-54
2023/01/22 06:53:03;;;;;;;10.48;5.45;;;;;;;3.80;44.28;103327.41;7397553;19;20015;-53
2023/01/22 06:55:29;;;;;;;11.73;5.13;;;;;;;3.84;44.33;103336.69;7397146;19;20078;-53
2023/01/22 06:57:55;;;;;;;11.55;5.05;;;;;;;3.57;45.06;103334.41;7395415;19;19999;-54
2023/01/22 07:00:21;;;;;;;8.38;4.47;;;;;;;3.44;45.04;103329.22;7396253;19;20028;-54
2023/01/22 07:02:47;;;;;;;8.77;4.43;;;;;;;3.60;44.74;103336.63;7393987;19;20417;-54
2023/01/22 07:05:14;;;;;;;9.52;4.68;;;;;;;3.51;44.91;103335.34;7392052;19;20017;-51
2023/01/22 07:07:41;;;;;;;13.57;4.50;;;;;;;3.59;44.72;103334.19;7393674;19;20528;-54
2023/01/22 07:10:08;;;;;;;11.00;4.50;;;;;;;3.69;44.81;103337.16;7396355;19;19998;-55
2023/01/22 07:12:34;;;;;;;8.93;4.40;;;;;;;3.70;44.64;103334.22;7396944;19;20092;-54
2023/01/22 07:14:59;;;;;;;9.68;5.00;;;;;;;3.65;44.78;103344.03;7394413;19;20422;-53
2023/01/22 07:17:25;;;;;;;9.07;5.18;;;;;;;3.48;45.10;103341.19;7393862;19;20005;-54
2023/01/22 07:19:51;;;;;;;8.43;4.32;;;;;;;3.53;45.13;103344.03;7396657;19;20014;-55
2023/01/22 07:22:20;;;;;;;8.85;4.60;;;;;;;3.67;45.00;103342.78;7394200;19;20327;-56
2023/01/22 07:24:46;;;;;;;9.38;4.30;;;;;;;3.57;45.11;103334.41;7392772;19;20361;-54
2023/01/22 07:27:12;;;;;;;8.50;4.50;;;;;;;3.59;44.90;103343.09;7394438;19;20012;-52
2023/01/22 07:29:38;;;;;;;9.45;4.53;;;;;;;3.63;44.86;103344.28;7396045;19;20014;-54
2023/01/22 07:32:04;;;;;;;10.95;4.70;;;;;;;3.66;45.02;103351.91;7395929;19;20066;-53
2023/01/22 07:34:30;;;;;;;10.45;4.72;;;;;;;3.59;44.99;103353.91;7394546;19;20002;-55
2023/01/22 07:36:56;;;;;;;11.07;5.20;;;;;;;3.63;45.02;103357.78;7392997;19;20023;-53
2023/01/22 07:39:21;;;;;;;9.63;4.53;;;;;;;3.43;45.25;103357.25;7395101;19;20002;-53
2023/01/22 07:41:47;;;;;;;11.50;4.75;;;;;;;3.63;45.10;103359.66;7392057;19;20002;-54
2023/01/22 07:44:13;;;;;;;10.80;4.90;;;;;;;3.73;44.82;103359.09;7394270;19;20001;-51
2023/01/22 07:46:39;;;;;;;10.85;5.03;;;;;;;3.62;44.78;103353.44;7395345;19;20047;-53
2023/01/22 07:49:05;;;;;;;10.60;4.60;;;;;;;3.59;44.94;103359.31;7394533;19;20001;-52
2023/01/22 07:51:31;;;;;;;11.50;4.47;;;;;;;3.68;44.74;103363.31;7393416;19;19994;-51
2023/01/22 07:53:57;;;;;;;11.55;4.68;;;;;;;3.73;44.75;103359.91;7395002;19;20062;-50
2023/01/22 07:56:23;;;;;;;9.27;4.70;;;;;;;3.75;44.81;103365.91;7394481;19;20467;-51
2023/01/22 07:58:49;;;;;;;10.52;4.70;;;;;;;3.87;44.47;103365.94;7393892;19;20041;-52
2023/01/22 08:01:15;;;;;;;10.60;4.88;;;;;;;3.95;44.13;103365.59;7393547;19;19995;-49
2023/01/22 08:03:41;;;;;;;10.65;4.60;;;;;;;3.82;44.52;103376.63;7387838;19;20024;-58
2023/01/22 08:06:08;;;;;;;10.85;5.25;;;;;;;3.81;44.49;103375.81;7396447;19;20025;-59
2023/01/22 08:08:34;;;;;;;11.38;4.75;;;;;;;3.93;44.40;103375.81;7392824;19;19998;-57
2023/01/22 08:11:00;;;;;;;10.25;4.50;;;;;;;3.80;44.52;103384.13;7391978;19;20062;-58
2023/01/22 08:13:26;;;;;;;8.77;4.40;;;;;;;3.58;45.23;103392.75;7393574;19;20472;-58
2023/01/22 08:15:53;;;;;;;9.68;4.40;;;;;;;3.83;44.78;103386.38;7392860;19;20305;-58
2023/01/22 08:18:19;;;;;;;9.10;4.45;;;;;;;3.84;44.49;103391.56;7392281;19;20013;-57
2023/01/22 08:20:46;;;;;;;9.32;4.63;;;;;;;3.83;44.57;103397.19;7393442;19;19990;-58
2023/01/22 08:23:12;;;;;;;9.45;4.70;;;;;;;3.71;44.97;103389.88;7393140;19;20066;-58
2023/01/22 08:25:38;;;;;;;12.32;4.38;;;;;;;3.81;44.75;103399.31;7391478;19;20100;-57
2023/01/22 08:28:04;;;;;;;7.30;4.18;;;;;;;3.63;45.06;103397.47;7392315;19;20007;-57
2023/01/22 08:30:31;;;;;;;13.27;4.55;;;;;;;3.59;45.16;103391.72;7390937;19;20490;-57
2023/01/22 08:32:57;;;;;;;12.23;4.97;;;;;;;3.74;45.02;103393.16;7391015;19;20006;-58
2023/01/22 08:35:23;;;;;;;9.88;4.40;;;;;;;3.89;44.66;103402.47;7390729;19;20482;-60
2023/01/22 08:37:49;;;;;;;10.30;4.50;;;;;;;3.96;44.46;103396.97;7392071;19;19994;-58
2023/01/22 08:40:15;;;;;;;13.60;4.75;;;;;;;3.94;44.40;103387.44;7392138;19;20005;-57
2023/01/22 08:42:52;;;;;;;10.02;4.65;;;;;;;3.84;44.60;103405.06;7390463;19;20024;-59
2023/01/22 08:45:18;;;;;;;9.57;4.55;;;;;;;3.86;44.71;103404.84;7390103;19;20035;-58
2023/01/22 08:47:43;;;;;;;9.60;4.32;;;;;;;3.91;44.72;103394.16;7391891;19;20502;-58
2023/01/22 08:50:10;;;;;;;9.60;4.63;;;;;;;4.03;44.44;103391.47;7390077;19;20363;-57
2023/01/22 08:52:35;;;;;;;9.77;4.32;;;;;;;4.05;44.42;103395.59;7393026;19;20017;-57
2023/01/22 08:55:01;;;;;;;9.73;4.15;;;;;;;4.09;44.35;103391.34;7390890;19;20467;-57
2023/01/22 08:57:27;;;;;;;8.65;4.35;;;;;;;3.85;44.74;103392.38;7389853;19;20491;-57
2023/01/22 08:59:53;;;;;;;14.55;4.63;;;;;;;3.91;44.98;103394.16;7391314;19;19995;-59
2023/01/22 09:02:19;;;;;;;9.27;4.72;;;;;;;4.00;44.69;103400.84;7391094;19;20002;-57
2023/01/22 09:04:51;;;;;;;12.73;4.82;;;;;;;4.03;44.77;103392.28;7390120;19;20026;-57
2023/01/22 09:07:17;;;;;;;8.18;4.25;;;;;;;4.02;44.76;103396.06;7391892;19;20038;-58
2023/01/22 09:09:43;;;;;;;11.77;4.55;;;;;;;4.03;44.87;103397.69;7391942;19;20082;-59
2023/01/22 09:12:09;;;;;;;9.73;4.45;;;;;;;4.12;44.71;103395.47;7389627;19;20006;-58
2023/01/22 09:14:35;;;;;;;9.18;4.60;;;;;;;4.09;44.83;103391.34;7393616;19;20508;-58
2023/01/22 09:17:00;;;;;;;10.63;4.63;;;;;;;4.19;44.72;103389.97;7390653;19;20003;-59
2023/01/22 09:19:26;;;;;;;9.27;4.10;;;;;;;4.14;44.61;103397.94;7391552;19;20022;-58
2023/01/22 09:21:52;;;;;;;9.40;3.83;;;;;;;4.19;44.73;103392.66;7390308;19;19999;-57
2023/01/22 09:24:18;;;;;;;7.90;3.85;;;;;;;4.06;44.98;103393.72;7389319;19;20026;-57
2023/01/22 09:26:43;;;;;;;11.38;4.60;;;;;;;3.90;45.35;103403.28;7389899;19;19994;-58
2023/01/22 09:29:09;;;;;;;23.77;6.00;;;;;;;4.01;45.24;103399.81;7390577;19;20013;-58
2023/01/22 09:31:36;;;;;;;12.32;4.43;;;;;;;4.24;44.65;103398.19;7391624;19;20003;-58
2023/01/22 09:34:02;;;;;;;11.10;4.28;;;;;;;4.14;45.10;103398.78;7389610;19;20354;-59
2023/01/22 09:36:28;;;;;;;11.05;4.30;;;;;;;4.13;44.96;103401.72;7390704;19;20474;-59
2023/01/22 09:39:01;;;;;;;10.88;4.10;;;;;;;4.21;44.87;103410.28;7390938;19;19990;-59
2023/01/22 09:41:34;;;;;;;11.77;4.57;;;;;;;4.26;45.05;103407.69;7388309;19;20007;-57
2023/01/22 09:44:16;;;;;;;12.15;5.10;;;;;;;4.22;44.93;103403.84;7390416;19;20006;-58
2023/01/22 09:46:46;;;;;;;10.25;4.50;;;;;;;4.20;45.25;103407.81;7390843;19;20011;-58
2023/01/22 09:49:22;;;;;;;9.75;4.40;;;;;;;4.05;45.28;103402.84;7388651;19;20085;-58
2023/01/22 09:51:57;;;;;;;11.27;4.60;;;;;;;4.22;45.23;103400.28;7390529;19;20001;-58
2023/01/22 09:54:24;;;;;;;8.85;4.20;;;;;;;4.36;44.84;103406.31;7389757;19;19999;-58
2023/01/22 09:56:52;;;;;;;9.63;4.30;;;;;;;4.36;45.06;103398.19;7389955;19;20032;-58
2023/01/22 09:59:21;;;;;;;11.25;4.38;;;;;;;4.22;45.17;103403.00;7387473;19;20007;-58
2023/01/22 10:01:56;;;;;;;11.77;4.75;;;;;;;4.29;45.20;103401.00;7394202;19;20003;-57
2023/01/22 10:04:35;;;;;;;10.57;4.85;;;;;;;4.50;45.04;103396.06;7395813;19;20014;-57
2023/01/22 10:07:05;;;;;;;9.27;4.63;;;;;;;4.54;44.76;103392.66;7397606;19;19998;-57
2023/01/22 10:09:32;;;;;;;11.68;4.85;;;;;;;4.39;45.17;103397.72;7397724;19;20022;-58
2023/01/22 10:12:04;;;;;;;10.90;4.35;;;;;;;4.31;45.37;103393.47;7397451;19;20010;-58
2023/01/22 10:14:30;;;;;;;10.95;4.32;;;;;;;4.13;45.76;103391.72;7394078;19;20602;-58
2023/01/22 10:17:02;;;;;;;9.45;4.68;;;;;;;4.18;45.89;103389.13;7396865;19;20009;-57
2023/01/22 10:19:46;;;;;;;11.73;4.20;;;;;;;4.28;45.70;103391.25;7397141;19;20010;-59
2023/01/22 10:22:21;;;;;;;9.73;4.40;;;;;;;4.54;45.19;103397.22;7395882;19;20006;-57
2023/01/22 10:24:47;;;;;;;11.15;4.63;;;;;;;4.35;45.25;103393.84;7394019;19;20005;-58
2023/01/22 10:27:15;;;;;;;11.35;3.97;;;;;;;4.43;45.53;103386.19;7396736;19;20003;-59
2023/01/22 10:29:45;;;;;;;11.88;4.60;;;;;;;4.52;45.31;103383.97;7396511;19;20402;-56
2023/01/22 10:32:28;;;;;;;13.23;4.63;;;;;;;4.63;45.09;103379.59;7397612;19;20002;-57
2023/01/22 10:35:11;;;;;;;11.90;4.70;;;;;;;4.64;45.07;103376.66;7394853;19;20080;-58
2023/01/22 10:37:51;;;;;;;13.07;4.45;;;;;;;4.65;44.95;103385.56;7396478;19;20014;-58
2023/01/22 10:40:36;;;;;;;11.75;4.38;;;;;;;4.57;45.57;103383.22;7395349;19;20011;-58
2023/01/22 10:43:12;;;;;;;10.18;4.22;;;;;;;4.55;45.50;103382.66;7394116;19;20003;-58
2023/01/22 10:45:53;;;;;;;9.38;4.65;;;;;;;4.73;45.11;103379.81;7394051;19;20003;-59
2023/01/22 10:48:19;;;;;;;10.57;4.82;;;;;;;4.78;45.04;103381.81;7393968;19;20002;-59
2023/01/22 10:50:56;;;;;;;11.85;4.43;;;;;;;4.74;45.09;103372.50;7396412;19;20095;-59
2023/01/22 10:53:36;;;;;;;10.45;4.80;;;;;;;4.78;45.04;103377.19;7397033;19;20344;-59
2023/01/22 10:56:06;;;;;;;11.23;4.30;;;;;;;4.76;45.12;103379.34;7396206;19;20114;-58
2023/01/22 10:58:36;;;;;;;10.85;4.65;;;;;;;4.70;45.29;103374.88;7395586;19;20347;-58
2023/01/22 11:01:05;;;;;;;11.02;4.60;;;;;;;4.67;45.50;103379.94;7393648;19;20010;-58
2023/01/22 11:03:36;;;;;;;13.13;4.88;;;;;;;4.80;45.22;103369.66;7395900;19;19998;-57
2023/01/22 11:06:16;;;;;;;11.88;5.20;;;;;;;4.84;45.37;103370.03;7391876;19;20006;-57
2023/01/22 11:08:50;;;;;;;12.80;5.22;;;;;;;4.79;45.22;103375.34;7393829;19;20009;-57
2023/01/22 11:11:22;;;;;;;9.27;4.25;;;;;;;4.75;45.44;103371.44;7393227;19;19999;-57
2023/01/22 11:13:53;;;;;;;12.15;5.10;;;;;;;4.75;45.45;103368.75;7395173;19;20435;-57
2023/01/22 11:16:21;;;;;;;15.57;6.15;;;;;;;4.66;45.81;103359.38;7393900;19;20006;-57
2023/01/22 11:18:59;;;;;;;11.60;4.50;;;;;;;4.70;45.80;103361.34;7394780;19;19998;-57
2023/01/22 11:21:31;;;;;;;10.55;3.90;;;;;;;4.61;45.89;103360.88;7394495;19;20003;-58
2023/01/22 11:24:05;;;;;;;10.75;4.00;;;;;;;4.61;45.83;103366.28;7394794;19;20006;-58
2023/01/22 11:26:33;;;;;;;;;;;;;;;4.58;46.37;103358.66;7396092;19;20062;-57
2023/01/22 11:29:46;;;;;;;16.00;4.85;;;;;;;4.66;46.09;103354.78;7394372;19;19941;-58
2023/01/22 11:32:37;;;;;;;9.88;4.07;;;;;;;4.71;45.93;103354.88;7395820;19;20017;-58
2023/01/22 11:35:12;;;;;;;10.77;4.10;;;;;;;4.86;45.61;103350.84;7393415;19;20002;-59
2023/01/22 11:37:45;;;;;;;14.50;4.97;;;;;;;4.79;45.89;103354.50;7394736;19;20002;-58
2023/01/22 11:40:27;;;;;;;10.63;4.10;;;;;;;4.64;45.98;103346.88;7393524;19;20455;-59
2023/01/22 11:42:56;;;;;;;10.00;4.10;;;;;;;4.79;45.87;103338.28;7393410;19;20320;-58